createdAt,value
2023-01-04T00:00:46.945Z,26.00
2023-01-04T00:03:48.735Z,35.27
2023-01-04T00:06:50.503Z,27.13
2023-01-04T00:09:52.162Z,26.63
2023-01-04T00:12:53.921Z,26.87
2023-01-04T00:15:55.608Z,27.60
2023-01-04T00:18:57.771Z,28.30
2023-01-04T00:21:59.352Z,27.50
2023-01-04T00:25:00.964Z,27.20
2023-01-04T00:28:02.540Z,28.53
2023-01-04T00:31:08.486Z,26.00
2023-01-04T00:34:10.899Z,22.63
2023-01-04T00:37:12.742Z,23.30
2023-01-04T00:40:14.368Z,22.57
2023-01-04T00:43:16.005Z,20.77
2023-01-04T00:46:17.696Z,19.63
2023-01-04T00:49:19.383Z,23.73
2023-01-04T00:52:21.031Z,20.30
2023-01-04T00:55:22.641Z,22.47
2023-01-04T00:58:24.280Z,25.83
2023-01-04T01:01:26.422Z,25.50
2023-01-04T01:04:28.197Z,24.63
2023-01-04T01:07:29.892Z,23.47
2023-01-04T01:10:34.198Z,22.83
2023-01-04T01:13:36.737Z,23.47
2023-01-04T01:16:54.421Z,21.57
2023-01-04T01:19:57.261Z,24.10
2023-01-04T01:22:59.009Z,21.60
2023-01-04T01:26:01.676Z,26.77
2023-01-04T01:29:03.372Z,22.83
2023-01-04T01:32:05.193Z,24.57
2023-01-04T01:35:06.940Z,23.13
2023-01-04T01:38:08.656Z,22.97
2023-01-04T01:41:26.975Z,24.53
2023-01-04T01:44:46.725Z,26.27
2023-01-04T01:47:49.632Z,24.03
2023-01-04T01:50:53.874Z,27.00
2023-01-04T01:53:58.938Z,23.23
2023-01-04T01:57:02.026Z,26.20
2023-01-04T02:00:08.844Z,23.17
2023-01-04T02:03:18.393Z,22.70
2023-01-04T02:06:22.985Z,24.03
2023-01-04T02:09:24.605Z,25.63
2023-01-04T02:12:26.516Z,26.37
2023-01-04T02:15:34.807Z,24.83
2023-01-04T02:18:40.396Z,23.87
2023-01-04T02:21:44.958Z,22.70
2023-01-04T02:25:18.942Z,22.97
2023-01-04T02:28:38.945Z,19.90
2023-01-04T02:31:41.709Z,23.13
2023-01-04T02:34:58.475Z,24.53
2023-01-04T02:38:10.636Z,30.23
2023-01-04T02:41:27.660Z,23.50
2023-01-04T02:44:50.912Z,24.80
2023-01-04T02:48:11.273Z,22.07
2023-01-04T02:51:29.918Z,20.33
2023-01-04T02:54:32.611Z,23.00
2023-01-04T02:57:43.543Z,20.57
2023-01-04T03:01:09.497Z,20.97
2023-01-04T03:04:48.736Z,22.17
2023-01-04T03:07:56.805Z,24.40
2023-01-04T03:11:04.009Z,22.07
2023-01-04T03:14:31.992Z,19.93
2023-01-04T03:17:29.283Z,21.40
2023-01-04T03:20:31.555Z,26.10
2023-01-04T03:23:54.878Z,21.90
2023-01-04T03:27:22.240Z,23.67
2023-01-04T03:30:42.999Z,24.53
2023-01-04T03:34:03.365Z,25.60
2023-01-04T03:37:05.037Z,21.27
2023-01-04T03:40:35.927Z,23.00
2023-01-04T03:44:12.713Z,25.43
2023-01-04T03:47:38.016Z,25.37
2023-01-04T03:50:42.561Z,25.07
2023-01-04T03:53:56.537Z,23.63
2023-01-04T03:56:58.548Z,23.97
2023-01-04T04:00:07.611Z,22.17
2023-01-04T04:03:09.267Z,24.50
2023-01-04T04:06:29.540Z,29.70
2023-01-04T04:09:31.426Z,35.00
2023-01-04T04:12:32.945Z,35.00
2023-01-04T04:15:36.749Z,25.60
2023-01-04T04:18:38.398Z,26.43
2023-01-04T04:21:40.047Z,26.23
2023-01-04T04:24:41.689Z,25.93
2023-01-04T04:27:43.268Z,27.60
2023-01-04T04:30:44.823Z,24.10
2023-01-04T04:33:46.357Z,28.47
2023-01-04T04:36:48.042Z,24.70
2023-01-04T04:39:49.661Z,28.67
2023-01-04T04:42:51.316Z,29.87
2023-01-04T04:45:53.025Z,27.07
2023-01-04T04:48:54.761Z,28.10
2023-01-04T04:51:56.319Z,31.27
2023-01-04T04:54:58.010Z,30.37
2023-01-04T04:57:59.589Z,30.57
2023-01-04T05:01:01.509Z,33.23
2023-01-04T05:04:03.748Z,30.97
2023-01-04T05:07:12.060Z,29.53
2023-01-04T05:10:14.230Z,37.23
2023-01-04T05:13:15.853Z,42.30
2023-01-04T05:16:17.588Z,51.13
2023-01-04T05:19:20.276Z,47.70
2023-01-04T05:22:23.825Z,51.63
2023-01-04T05:25:25.581Z,45.60
2023-01-04T05:28:27.759Z,46.53
2023-01-04T05:32:01.527Z,42.97
2023-01-04T05:35:03.403Z,40.30
2023-01-04T05:38:05.111Z,42.70
2023-01-04T05:41:29.431Z,43.20
2023-01-04T05:44:31.037Z,43.37
2023-01-04T05:47:32.976Z,50.57
2023-01-04T05:50:34.654Z,54.35
2023-01-04T05:53:39.114Z,49.70
2023-01-04T05:56:40.727Z,60.13
2023-01-04T05:59:42.501Z,55.03
2023-01-04T06:02:44.451Z,58.13
2023-01-04T06:05:50.370Z,57.87
2023-01-04T06:08:52.205Z,56.43
2023-01-04T06:11:54.387Z,51.70
2023-01-04T06:14:56.091Z,44.20
2023-01-04T06:17:57.760Z,54.40
2023-01-04T06:20:59.400Z,54.63
2023-01-04T06:24:01.145Z,35.40
2023-01-04T06:27:03.574Z,36.70
2023-01-04T06:30:05.677Z,33.20
2023-01-04T06:33:07.214Z,32.07
2023-01-04T06:36:19.209Z,34.10
2023-01-04T06:39:21.884Z,55.37
2023-01-04T06:42:42.204Z,50.17
2023-01-04T06:45:44.013Z,55.77
2023-01-04T06:48:46.004Z,74.83
2023-01-04T06:51:47.807Z,78.83
2023-01-04T06:54:49.568Z,101.47
2023-01-04T06:57:55.018Z,87.73
2023-01-04T07:01:00.700Z,98.70
2023-01-04T07:04:02.373Z,73.67
2023-01-04T07:07:04.063Z,41.77
2023-01-04T07:10:09.741Z,43.37
2023-01-04T07:13:11.762Z,42.40
2023-01-04T07:16:13.422Z,59.43
2023-01-04T07:19:15.011Z,57.63
2023-01-04T07:22:17.208Z,57.13
2023-01-04T07:25:18.990Z,59.37
2023-01-04T07:28:39.254Z,57.30
2023-01-04T07:31:41.052Z,63.03
2023-01-04T07:34:43.912Z,56.37
2023-01-04T07:37:45.547Z,77.13
2023-01-04T07:40:56.716Z,81.90
2023-01-04T07:43:58.904Z,70.33
2023-01-04T07:47:00.483Z,87.23
2023-01-04T07:50:02.253Z,63.80
2023-01-04T07:53:03.851Z,61.30
2023-01-04T07:56:05.637Z,63.73
2023-01-04T07:59:08.224Z,57.10
2023-01-04T08:02:13.397Z,51.07
2023-01-04T08:05:15.305Z,76.07
2023-01-04T08:08:17.006Z,92.60
2023-01-04T08:11:19.301Z,78.10
2023-01-04T08:14:21.046Z,105.67
2023-01-04T08:17:22.633Z,84.20
2023-01-04T08:20:24.306Z,87.90
2023-01-04T08:23:25.878Z,67.73
2023-01-04T08:26:28.018Z,66.90
2023-01-04T08:29:34.750Z,51.70
2023-01-04T08:32:37.030Z,62.90
2023-01-04T08:35:38.677Z,52.37
2023-01-04T08:38:59.263Z,68.00
2023-01-04T08:42:14.583Z,60.97
2023-01-04T08:45:22.286Z,60.30
2023-01-04T08:48:24.864Z,59.90
2023-01-04T08:51:26.823Z,59.33
2023-01-04T08:54:28.505Z,70.57
2023-01-04T08:57:30.169Z,52.00
2023-01-04T09:00:31.987Z,55.57
2023-01-04T09:03:34.101Z,63.93
2023-01-04T09:06:36.756Z,81.43
2023-01-04T09:09:38.427Z,63.50
2023-01-04T09:12:40.121Z,58.10
2023-01-04T09:15:41.906Z,67.57
2023-01-04T09:18:44.037Z,59.07
2023-01-04T09:21:45.686Z,76.63
2023-01-04T09:24:47.423Z,73.97
2023-01-04T09:27:49.031Z,75.77
2023-01-04T09:30:50.733Z,103.00
2023-01-04T09:37:14.218Z,88.10
2023-01-04T09:40:20.675Z,97.67
2023-01-04T09:43:23.652Z,85.90
2023-01-04T09:46:28.368Z,83.17
2023-01-04T09:49:48.305Z,93.07
2023-01-04T09:53:08.840Z,110.30
2023-01-04T09:56:16.645Z,101.47
2023-01-04T09:59:19.779Z,102.93
2023-01-04T10:02:25.753Z,91.60
2023-01-04T10:05:29.073Z,102.33
2023-01-04T10:08:33.725Z,114.90
2023-01-04T10:11:58.741Z,53.73
2023-01-04T10:15:12.083Z,49.57
2023-01-04T10:21:41.553Z,40.37
2023-01-04T10:24:55.525Z,36.23
2023-01-04T10:28:03.473Z,47.57
2023-01-04T10:31:41.016Z,41.53
2023-01-04T10:34:39.005Z,50.77
2023-01-04T10:37:40.989Z,50.73
2023-01-04T10:40:43.867Z,36.57
2023-01-04T10:44:11.482Z,51.87
2023-01-04T10:47:22.595Z,37.53
2023-01-04T10:50:30.093Z,53.03
2023-01-04T10:53:37.809Z,32.47
2023-01-04T10:56:45.621Z,31.93
2023-01-04T10:59:47.185Z,36.13
2023-01-04T11:03:27.498Z,32.43
2023-01-04T11:06:31.169Z,31.67
2023-01-04T11:09:40.197Z,32.33
2023-01-04T11:12:41.845Z,41.73
2023-01-04T11:15:45.323Z,39.17
2023-01-04T11:18:48.936Z,28.83
2023-01-04T11:22:05.808Z,37.77
2023-01-04T11:28:41.050Z,33.13
2023-01-04T11:31:51.201Z,45.10
2023-01-04T11:34:54.215Z,34.20
2023-01-04T11:38:07.050Z,46.10
2023-01-04T11:41:15.821Z,33.90
2023-01-04T11:44:19.007Z,38.33
2023-01-04T11:47:24.247Z,35.37
2023-01-04T11:50:34.558Z,31.27
2023-01-04T11:53:37.315Z,37.87
2023-01-04T11:56:39.785Z,39.17
2023-01-04T11:59:41.503Z,46.73
2023-01-04T12:03:00.699Z,35.83
2023-01-04T12:06:07.648Z,40.13
2023-01-04T12:09:13.383Z,31.73
2023-01-04T12:12:16.075Z,27.53
2023-01-04T12:15:22.770Z,31.47
2023-01-04T12:18:35.175Z,37.70
2023-01-04T12:21:36.767Z,30.87
2023-01-04T12:24:38.946Z,28.63
2023-01-04T12:27:46.784Z,40.20
2023-01-04T12:30:48.496Z,34.67
2023-01-04T12:33:51.022Z,31.60
2023-01-04T12:36:52.705Z,34.20
2023-01-04T12:39:54.287Z,32.37
2023-01-04T12:43:26.001Z,36.47
2023-01-04T12:46:49.438Z,32.67
2023-01-04T12:49:51.385Z,29.13
2023-01-04T12:56:16.348Z,31.00
2023-01-04T12:59:34.237Z,31.60
2023-01-04T13:02:37.058Z,35.63
2023-01-04T13:05:56.121Z,36.97
2023-01-04T13:08:58.795Z,37.63
2023-01-04T13:12:06.865Z,35.60
2023-01-04T13:15:19.296Z,36.07
2023-01-04T13:18:21.316Z,33.47
2023-01-04T13:21:28.766Z,33.20
2023-01-04T13:24:32.134Z,36.23
2023-01-04T13:27:34.185Z,50.53
2023-01-04T13:30:37.900Z,53.57
2023-01-04T13:33:39.609Z,51.30
2023-01-04T13:36:41.192Z,54.47
2023-01-04T13:39:52.724Z,42.70
2023-01-04T13:43:09.740Z,41.87
2023-01-04T13:46:14.403Z,49.83
2023-01-04T13:49:16.533Z,41.37
2023-01-04T13:52:48.352Z,44.87
2023-01-04T13:55:42.798Z,60.23
2023-01-04T13:58:44.462Z,45.67
2023-01-04T14:01:49.193Z,42.60
2023-01-04T14:04:51.003Z,53.33
2023-01-04T14:07:52.653Z,39.27
2023-01-04T14:10:54.320Z,39.70
2023-01-04T14:13:56.023Z,40.07
2023-01-04T14:17:16.827Z,129.07
2023-01-04T14:20:24.523Z,59.23
2023-01-04T14:23:33.721Z,52.87
2023-01-04T14:26:36.131Z,63.50
2023-01-04T14:29:40.209Z,56.73
2023-01-04T14:32:42.173Z,62.73
2023-01-04T14:35:47.882Z,52.27
2023-01-04T14:38:57.751Z,49.67
2023-01-04T14:42:00.317Z,53.87
2023-01-04T14:45:02.195Z,52.27
2023-01-04T14:48:04.021Z,43.90
2023-01-04T14:51:06.216Z,56.90
2023-01-04T14:54:08.737Z,54.67
2023-01-04T14:57:11.195Z,47.07
2023-01-04T15:00:18.967Z,49.50
2023-01-04T15:03:21.449Z,46.73
2023-01-04T15:06:23.274Z,58.03
2023-01-04T15:09:25.457Z,64.67
2023-01-04T15:12:27.093Z,57.10
2023-01-04T15:15:29.143Z,53.37
2023-01-04T15:18:31.014Z,54.67
2023-01-04T15:21:36.911Z,54.60
2023-01-04T15:24:42.099Z,49.30
2023-01-04T15:27:43.799Z,59.40
2023-01-04T15:30:45.619Z,71.07
2023-01-04T15:33:47.325Z,69.57
2023-01-04T15:36:52.437Z,80.33
2023-01-04T15:39:58.391Z,64.43
2023-01-04T15:43:03.855Z,67.13
2023-01-04T15:46:07.498Z,71.53
2023-01-04T15:49:15.030Z,77.63
2023-01-04T15:52:18.784Z,105.10
2023-01-04T15:55:20.414Z,89.97
2023-01-04T15:58:22.147Z,81.40
2023-01-04T16:01:23.923Z,73.60
2023-01-04T16:04:26.863Z,77.87
2023-01-04T16:07:34.198Z,89.90
2023-01-04T16:10:37.768Z,84.20
2023-01-04T16:13:39.709Z,80.03
2023-01-04T16:16:41.448Z,80.10
2023-01-04T16:19:47.299Z,68.47
2023-01-04T16:22:48.938Z,75.23
2023-01-04T16:25:50.584Z,70.17
2023-01-04T16:28:55.795Z,60.80
2023-01-04T16:31:59.003Z,70.90
2023-01-04T16:35:00.935Z,62.27
2023-01-04T16:38:02.583Z,63.27
2023-01-04T16:41:05.463Z,69.17
2023-01-04T16:44:07.331Z,76.87
2023-01-04T16:47:09.218Z,98.53
2023-01-04T16:50:12.291Z,82.07
2023-01-04T16:53:14.178Z,67.00
2023-01-04T16:56:17.120Z,65.50
2023-01-04T16:59:19.200Z,57.43
2023-01-04T17:02:21.218Z,71.37
2023-01-04T17:05:23.276Z,59.67
2023-01-04T17:08:27.138Z,69.30
2023-01-04T17:15:14.999Z,67.40
2023-01-04T17:18:17.182Z,71.73
2023-01-04T17:21:36.017Z,68.70
2023-01-04T17:24:37.968Z,75.53
2023-01-04T17:27:39.710Z,74.07
2023-01-04T17:30:41.497Z,82.90
2023-01-04T17:33:46.945Z,57.07
2023-01-04T17:36:48.595Z,52.20
2023-01-04T17:39:50.379Z,61.53
2023-01-04T17:42:52.123Z,68.30
2023-01-04T17:45:54.024Z,63.57
2023-01-04T17:49:21.134Z,78.67
2023-01-04T17:52:23.259Z,78.30
2023-01-04T17:55:27.714Z,76.90
2023-01-04T17:58:29.641Z,78.60
2023-01-04T18:01:35.850Z,90.00
2023-01-04T18:04:37.831Z,85.17
2023-01-04T18:07:39.502Z,72.80
2023-01-04T18:11:06.186Z,81.23
2023-01-04T18:14:07.997Z,86.07
2023-01-04T18:17:14.030Z,82.00
2023-01-04T18:20:24.552Z,90.67
2023-01-04T18:23:29.130Z,89.63
2023-01-04T18:26:41.512Z,96.53
2023-01-04T18:29:55.729Z,85.97
2023-01-04T18:32:57.466Z,100.43
2023-01-04T18:36:01.889Z,100.70
2023-01-04T18:39:03.967Z,91.57
2023-01-04T18:42:05.581Z,94.10
2023-01-04T18:45:07.517Z,109.07
2023-01-04T18:48:09.224Z,98.07
2023-01-04T18:51:12.528Z,108.27
2023-01-04T18:54:20.435Z,102.37
2023-01-04T18:57:22.069Z,105.93
2023-01-04T19:00:29.739Z,103.33
2023-01-04T19:03:35.488Z,90.70
2023-01-04T19:06:37.225Z,89.07
2023-01-04T19:09:39.614Z,104.20
2023-01-04T19:12:42.883Z,92.43
2023-01-04T19:15:47.769Z,114.53
2023-01-04T19:18:52.396Z,100.33
2023-01-04T19:21:54.207Z,94.27
2023-01-04T19:24:55.951Z,104.03
2023-01-04T19:27:57.542Z,95.47
2023-01-04T19:30:59.129Z,102.63
2023-01-04T19:34:01.212Z,99.73
2023-01-04T19:37:02.868Z,100.33
2023-01-04T19:40:04.759Z,98.30
2023-01-04T19:43:07.619Z,107.03
2023-01-04T19:46:10.095Z,107.50
2023-01-04T19:49:15.110Z,103.13
2023-01-04T19:52:17.073Z,111.33
2023-01-04T19:55:18.730Z,104.10
2023-01-04T19:58:20.399Z,97.37
2023-01-04T20:01:22.859Z,94.37
2023-01-04T20:04:27.503Z,93.57
2023-01-04T20:07:29.088Z,103.63
2023-01-04T20:10:30.743Z,103.30
2023-01-04T20:13:33.569Z,103.33
2023-01-04T20:16:35.267Z,115.83
2023-01-04T20:19:37.021Z,112.80
2023-01-04T20:22:38.715Z,152.87
2023-01-04T20:25:47.217Z,136.87
2023-01-04T20:28:48.943Z,124.60
2023-01-04T20:31:50.772Z,115.17
2023-01-04T20:34:52.577Z,122.87
2023-01-04T20:37:55.812Z,111.27
2023-01-04T20:41:01.635Z,129.63
2023-01-04T20:44:03.307Z,128.00
2023-01-04T20:47:05.018Z,137.63
2023-01-04T20:50:06.951Z,138.40
2023-01-04T20:53:08.949Z,145.53
2023-01-04T20:56:23.874Z,161.17
2023-01-04T20:59:25.511Z,141.23
2023-01-04T21:02:27.261Z,124.33
2023-01-04T21:05:29.140Z,142.37
2023-01-04T21:08:31.060Z,128.17
2023-01-04T21:11:32.668Z,130.23
2023-01-04T21:14:38.114Z,134.60
2023-01-04T21:17:40.395Z,143.40
2023-01-04T21:20:42.811Z,110.47
2023-01-04T21:23:44.835Z,165.00
2023-01-04T21:26:46.501Z,143.67
2023-01-04T21:29:48.193Z,153.37
2023-01-04T21:32:49.803Z,147.47
2023-01-04T21:35:51.520Z,130.50
2023-01-04T21:38:54.498Z,137.37
2023-01-04T21:41:56.079Z,131.20
2023-01-04T21:44:57.927Z,136.87
2023-01-04T21:47:59.549Z,118.13
2023-01-04T21:51:01.842Z,115.83
2023-01-04T21:54:03.823Z,128.23
2023-01-04T21:57:07.830Z,115.63
2023-01-04T22:00:09.754Z,122.13
2023-01-04T22:03:11.805Z,117.93
2023-01-04T22:06:14.132Z,136.13
2023-01-04T22:09:15.856Z,132.47
2023-01-04T22:12:17.633Z,134.30
2023-01-04T22:15:19.285Z,141.43
2023-01-04T22:18:20.929Z,137.77
2023-01-04T22:21:26.587Z,150.53
2023-01-04T22:24:32.643Z,153.87
2023-01-04T22:27:37.316Z,136.77
2023-01-04T22:30:40.155Z,132.40
2023-01-04T22:33:42.115Z,128.77
2023-01-04T22:36:44.045Z,135.67
2023-01-04T22:39:45.687Z,119.07
2023-01-04T22:42:47.303Z,129.03
2023-01-04T22:45:48.950Z,119.50
2023-01-04T22:48:50.559Z,122.57
2023-01-04T22:51:54.427Z,116.50
2023-01-04T22:54:56.024Z,122.00
2023-01-04T22:57:57.619Z,114.70
2023-01-04T23:00:59.249Z,115.10
2023-01-04T23:04:01.459Z,107.57
2023-01-04T23:07:03.187Z,99.30
2023-01-04T23:10:05.052Z,107.53
2023-01-04T23:13:06.674Z,95.40
2023-01-04T23:16:09.762Z,109.30
2023-01-04T23:19:12.653Z,102.03
2023-01-04T23:22:14.394Z,104.80
2023-01-04T23:25:16.037Z,99.93
2023-01-04T23:28:17.780Z,89.80
2023-01-04T23:31:21.461Z,90.43
2023-01-04T23:34:23.196Z,88.10
2023-01-04T23:37:25.333Z,84.63
2023-01-04T23:40:27.008Z,81.60
2023-01-04T23:43:28.674Z,88.53
2023-01-04T23:46:30.261Z,88.87
2023-01-04T23:49:32.812Z,80.03
2023-01-04T23:52:34.457Z,85.63
2023-01-04T23:55:36.001Z,97.87
2023-01-04T23:58:37.596Z,105.23
